sensor_id;sensor_type;location;lat;lon;timestamp;temperature;humidity
19781;DHT22;10050;55.492;13.506;2023-02-28T00:00:30;2.50;99.90
19781;DHT22;10050;55.492;13.506;2023-02-28T00:02:56;2.50;99.90
19781;DHT22;10050;55.492;13.506;2023-02-28T00:05:24;2.50;99.90
19781;DHT22;10050;55.492;13.506;2023-02-28T00:07:51;2.40;99.90
19781;DHT22;10050;55.492;13.506;2023-02-28T00:10:19;2.40;99.90
19781;DHT22;10050;55.492;13.506;2023-02-28T00:12:47;2.40;99.90
19781;DHT22;10050;55.492;13.506;2023-02-28T00:15:12;2.30;99.90
19781;DHT22;10050;55.492;13.506;2023-02-28T00:17:38;2.20;99.90
19781;DHT22;10050;55.492;13.506;2023-02-28T00:20:05;2.20;99.90
19781;DHT22;10050;55.492;13.506;2023-02-28T00:22:39;2.20;99.90
19781;DHT22;10050;55.492;13.506;2023-02-28T00:25:06;2.20;99.90
19781;DHT22;10050;55.492;13.506;2023-02-28T00:27:33;2.20;99.90
19781;DHT22;10050;55.492;13.506;2023-02-28T00:29:59;2.20;99.90
19781;DHT22;10050;55.492;13.506;2023-02-28T00:32:24;2.10;99.90
19781;DHT22;10050;55.492;13.506;2023-02-28T00:34:50;2.20;99.90
19781;DHT22;10050;55.492;13.506;2023-02-28T00:37:16;2.10;99.90
19781;DHT22;10050;55.492;13.506;2023-02-28T00:39:41;2.10;99.90
19781;DHT22;10050;55.492;13.506;2023-02-28T00:42:07;2.10;99.90
19781;DHT22;10050;55.492;13.506;2023-02-28T00:44:33;2.10;99.90
19781;DHT22;10050;55.492;13.506;2023-02-28T00:47:00;2.00;99.90
19781;DHT22;10050;55.492;13.506;2023-02-28T00:49:26;2.00;99.90
19781;DHT22;10050;55.492;13.506;2023-02-28T00:51:53;2.00;99.90
19781;DHT22;10050;55.492;13.506;2023-02-28T00:54:19;2.00;99.90
19781;DHT22;10050;55.492;13.506;2023-02-28T00:56:45;2.00;99.90
19781;DHT22;10050;55.492;13.506;2023-02-28T00:59:12;1.90;99.90
19781;DHT22;10050;55.492;13.506;2023-02-28T01:01:38;1.90;99.90
19781;DHT22;10050;55.492;13.506;2023-02-28T01:04:04;1.90;99.90
19781;DHT22;10050;55.492;13.506;2023-02-28T01:06:30;1.90;99.90
19781;DHT22;10050;55.492;13.506;2023-02-28T01:08:57;1.80;99.90
19781;DHT22;10050;55.492;13.506;2023-02-28T01:11:23;1.80;99.90
19781;DHT22;10050;55.492;13.506;2023-02-28T01:13:48;1.80;99.90
19781;DHT22;10050;55.492;13.506;2023-02-28T01:16:15;1.70;99.90
19781;DHT22;10050;55.492;13.506;2023-02-28T01:18:41;1.70;99.90
19781;DHT22;10050;55.492;13.506;2023-02-28T01:21:09;1.70;99.90
19781;DHT22;10050;55.492;13.506;2023-02-28T01:23:35;1.70;99.90
19781;DHT22;10050;55.492;13.506;2023-02-28T01:26:09;1.70;99.90
19781;DHT22;10050;55.492;13.506;2023-02-28T01:28:36;1.70;99.90
19781;DHT22;10050;55.492;13.506;2023-02-28T01:31:02;1.70;99.90
19781;DHT22;10050;55.492;13.506;2023-02-28T01:33:28;1.60;99.90
19781;DHT22;10050;55.492;13.506;2023-02-28T01:36:11;1.60;99.90
19781;DHT22;10050;55.492;13.506;2023-02-28T01:38:37;1.60;99.90
19781;DHT22;10050;55.492;13.506;2023-02-28T01:41:04;1.60;99.90
19781;DHT22;10050;55.492;13.506;2023-02-28T01:43:52;1.60;99.90
19781;DHT22;10050;55.492;13.506;2023-02-28T01:46:18;1.60;99.90
19781;DHT22;10050;55.492;13.506;2023-02-28T01:49:09;1.60;99.90
19781;DHT22;10050;55.492;13.506;2023-02-28T01:51:44;1.60;99.90
19781;DHT22;10050;55.492;13.506;2023-02-28T01:54:15;1.50;99.90
19781;DHT22;10050;55.492;13.506;2023-02-28T01:56:45;1.50;99.90
19781;DHT22;10050;55.492;13.506;2023-02-28T01:59:16;1.60;99.90
19781;DHT22;10050;55.492;13.506;2023-02-28T02:01:46;1.50;99.90
19781;DHT22;10050;55.492;13.506;2023-02-28T02:04:11;1.50;99.90
19781;DHT22;10050;55.492;13.506;2023-02-28T02:06:41;1.50;99.90
19781;DHT22;10050;55.492;13.506;2023-02-28T02:09:08;1.50;99.90
19781;DHT22;10050;55.492;13.506;2023-02-28T02:11:34;1.50;99.90
19781;DHT22;10050;55.492;13.506;2023-02-28T02:17:11;1.40;99.90
19781;DHT22;10050;55.492;13.506;2023-02-28T02:26:00;1.40;99.90
19781;DHT22;10050;55.492;13.506;2023-02-28T02:31:46;1.30;99.90
19781;DHT22;10050;55.492;13.506;2023-02-28T02:36:46;1.30;99.90
19781;DHT22;10050;55.492;13.506;2023-02-28T02:39:38;1.20;99.90
19781;DHT22;10050;55.492;13.506;2023-02-28T02:42:35;1.20;99.90
19781;DHT22;10050;55.492;13.506;2023-02-28T02:45:07;1.20;99.90
19781;DHT22;10050;55.492;13.506;2023-02-28T02:47:35;1.20;99.90
19781;DHT22;10050;55.492;13.506;2023-02-28T02:50:05;1.20;99.90
19781;DHT22;10050;55.492;13.506;2023-02-28T02:52:44;1.10;99.90
19781;DHT22;10050;55.492;13.506;2023-02-28T02:55:11;1.20;99.90
19781;DHT22;10050;55.492;13.506;2023-02-28T03:00:11;1.10;99.90
19781;DHT22;10050;55.492;13.506;2023-02-28T03:02:38;1.10;99.90
19781;DHT22;10050;55.492;13.506;2023-02-28T03:05:14;1.00;99.90
19781;DHT22;10050;55.492;13.506;2023-02-28T03:07:42;1.00;99.90
19781;DHT22;10050;55.492;13.506;2023-02-28T03:10:32;1.00;99.90
19781;DHT22;10050;55.492;13.506;2023-02-28T03:16:30;0.90;99.90
19781;DHT22;10050;55.492;13.506;2023-02-28T03:24:39;0.80;99.90
19781;DHT22;10050;55.492;13.506;2023-02-28T03:27:23;0.80;99.90
19781;DHT22;10050;55.492;13.506;2023-02-28T03:30:04;0.80;99.90
19781;DHT22;10050;55.492;13.506;2023-02-28T03:32:38;0.80;99.90
19781;DHT22;10050;55.492;13.506;2023-02-28T03:35:11;0.80;99.90
19781;DHT22;10050;55.492;13.506;2023-02-28T03:37:41;0.70;99.90
19781;DHT22;10050;55.492;13.506;2023-02-28T03:40:17;0.60;99.90
19781;DHT22;10050;55.492;13.506;2023-02-28T03:42:48;0.70;99.90
19781;DHT22;10050;55.492;13.506;2023-02-28T03:45:21;0.60;99.90
19781;DHT22;10050;55.492;13.506;2023-02-28T03:55:42;0.50;99.90
19781;DHT22;10050;55.492;13.506;2023-02-28T03:58:32;0.50;99.90
19781;DHT22;10050;55.492;13.506;2023-02-28T04:01:25;0.60;99.90
19781;DHT22;10050;55.492;13.506;2023-02-28T04:03:53;0.50;99.90
19781;DHT22;10050;55.492;13.506;2023-02-28T04:06:21;0.40;99.90
19781;DHT22;10050;55.492;13.506;2023-02-28T04:08:48;0.40;99.90
19781;DHT22;10050;55.492;13.506;2023-02-28T04:13:53;0.40;99.90
19781;DHT22;10050;55.492;13.506;2023-02-28T04:16:19;0.40;99.90
19781;DHT22;10050;55.492;13.506;2023-02-28T04:18:44;0.30;99.90
19781;DHT22;10050;55.492;13.506;2023-02-28T04:21:10;0.30;99.90
19781;DHT22;10050;55.492;13.506;2023-02-28T04:23:36;0.40;99.90
19781;DHT22;10050;55.492;13.506;2023-02-28T04:26:02;0.40;99.90
19781;DHT22;10050;55.492;13.506;2023-02-28T04:28:29;0.30;99.90
19781;DHT22;10050;55.492;13.506;2023-02-28T04:31:01;0.30;99.90
19781;DHT22;10050;55.492;13.506;2023-02-28T04:33:28;0.30;99.90
19781;DHT22;10050;55.492;13.506;2023-02-28T04:38:25;0.30;99.90
19781;DHT22;10050;55.492;13.506;2023-02-28T04:40:51;0.30;99.90
19781;DHT22;10050;55.492;13.506;2023-02-28T04:43:16;0.20;99.90
19781;DHT22;10050;55.492;13.506;2023-02-28T04:45:42;0.30;99.90
19781;DHT22;10050;55.492;13.506;2023-02-28T04:48:08;0.20;99.90
19781;DHT22;10050;55.492;13.506;2023-02-28T04:50:33;0.30;99.90
19781;DHT22;10050;55.492;13.506;2023-02-28T04:52:59;0.20;99.90
19781;DHT22;10050;55.492;13.506;2023-02-28T04:55:24;0.20;99.90
19781;DHT22;10050;55.492;13.506;2023-02-28T04:57:50;0.20;99.90
19781;DHT22;10050;55.492;13.506;2023-02-28T05:00:16;0.20;99.90
19781;DHT22;10050;55.492;13.506;2023-02-28T05:02:42;0.20;99.90
19781;DHT22;10050;55.492;13.506;2023-02-28T05:05:08;0.10;99.90
19781;DHT22;10050;55.492;13.506;2023-02-28T05:07:33;0.10;99.90
19781;DHT22;10050;55.492;13.506;2023-02-28T05:09:59;0.10;99.90
19781;DHT22;10050;55.492;13.506;2023-02-28T05:12:25;0.10;99.90
19781;DHT22;10050;55.492;13.506;2023-02-28T05:14:50;0.10;99.90
19781;DHT22;10050;55.492;13.506;2023-02-28T05:17:16;0.10;99.90
19781;DHT22;10050;55.492;13.506;2023-02-28T05:19:42;0.00;99.90
19781;DHT22;10050;55.492;13.506;2023-02-28T05:22:13;0.10;99.90
19781;DHT22;10050;55.492;13.506;2023-02-28T05:24:40;0.00;99.90
19781;DHT22;10050;55.492;13.506;2023-02-28T05:27:07;0.00;99.90
19781;DHT22;10050;55.492;13.506;2023-02-28T05:29:33;0.00;99.90
19781;DHT22;10050;55.492;13.506;2023-02-28T05:31:59;0.00;99.90
19781;DHT22;10050;55.492;13.506;2023-02-28T05:34:25;0.00;99.90
19781;DHT22;10050;55.492;13.506;2023-02-28T05:36:51;-0.10;99.90
19781;DHT22;10050;55.492;13.506;2023-02-28T05:39:16;-0.10;99.90
19781;DHT22;10050;55.492;13.506;2023-02-28T05:41:43;-0.10;99.90
19781;DHT22;10050;55.492;13.506;2023-02-28T05:44:09;-0.10;99.90
19781;DHT22;10050;55.492;13.506;2023-02-28T05:46:35;-0.20;99.90
19781;DHT22;10050;55.492;13.506;2023-02-28T05:49:01;-0.20;99.90
19781;DHT22;10050;55.492;13.506;2023-02-28T05:51:26;-0.20;99.90
19781;DHT22;10050;55.492;13.506;2023-02-28T05:53:52;-0.20;99.90
19781;DHT22;10050;55.492;13.506;2023-02-28T05:56:18;-0.30;99.90
19781;DHT22;10050;55.492;13.506;2023-02-28T05:58:43;-0.20;99.90
19781;DHT22;10050;55.492;13.506;2023-02-28T06:01:39;-0.30;99.90
19781;DHT22;10050;55.492;13.506;2023-02-28T06:04:08;-0.20;99.90
19781;DHT22;10050;55.492;13.506;2023-02-28T06:06:34;-0.30;99.90
19781;DHT22;10050;55.492;13.506;2023-02-28T06:09:01;-0.30;99.90
19781;DHT22;10050;55.492;13.506;2023-02-28T06:11:27;-0.20;99.90
19781;DHT22;10050;55.492;13.506;2023-02-28T06:13:57;-0.20;99.90
19781;DHT22;10050;55.492;13.506;2023-02-28T06:16:26;-0.20;99.90
19781;DHT22;10050;55.492;13.506;2023-02-28T06:18:52;-0.20;99.90
19781;DHT22;10050;55.492;13.506;2023-02-28T06:21:18;-0.20;99.90
19781;DHT22;10050;55.492;13.506;2023-02-28T06:23:44;-0.30;99.90
19781;DHT22;10050;55.492;13.506;2023-02-28T06:26:10;-0.20;99.90
19781;DHT22;10050;55.492;13.506;2023-02-28T06:28:36;-0.10;99.90
19781;DHT22;10050;55.492;13.506;2023-02-28T06:31:10;0.00;99.90
19781;DHT22;10050;55.492;13.506;2023-02-28T06:33:37;0.00;99.90
19781;DHT22;10050;55.492;13.506;2023-02-28T06:36:03;0.10;99.90
19781;DHT22;10050;55.492;13.506;2023-02-28T06:38:30;0.20;99.90
19781;DHT22;10050;55.492;13.506;2023-02-28T06:40:57;0.10;99.90
19781;DHT22;10050;55.492;13.506;2023-02-28T06:43:24;0.10;99.90
19781;DHT22;10050;55.492;13.506;2023-02-28T06:45:50;0.10;99.90
19781;DHT22;10050;55.492;13.506;2023-02-28T06:48:16;0.20;99.90
19781;DHT22;10050;55.492;13.506;2023-02-28T06:50:42;0.30;99.90
19781;DHT22;10050;55.492;13.506;2023-02-28T06:53:07;0.40;99.90
19781;DHT22;10050;55.492;13.506;2023-02-28T06:55:33;0.50;99.90
19781;DHT22;10050;55.492;13.506;2023-02-28T06:57:59;0.60;99.90
19781;DHT22;10050;55.492;13.506;2023-02-28T07:00:25;0.60;99.90
19781;DHT22;10050;55.492;13.506;2023-02-28T07:02:50;0.70;99.90
19781;DHT22;10050;55.492;13.506;2023-02-28T07:05:16;0.80;99.90
19781;DHT22;10050;55.492;13.506;2023-02-28T07:07:42;0.90;99.90
19781;DHT22;10050;55.492;13.506;2023-02-28T07:10:10;1.00;99.90
19781;DHT22;10050;55.492;13.506;2023-02-28T07:12:37;1.10;99.90
19781;DHT22;10050;55.492;13.506;2023-02-28T07:15:04;1.20;99.90
19781;DHT22;10050;55.492;13.506;2023-02-28T07:17:30;1.40;99.90
19781;DHT22;10050;55.492;13.506;2023-02-28T07:19:55;1.60;99.90
19781;DHT22;10050;55.492;13.506;2023-02-28T07:22:21;1.60;99.90
19781;DHT22;10050;55.492;13.506;2023-02-28T07:24:47;1.70;99.90
19781;DHT22;10050;55.492;13.506;2023-02-28T07:27:13;1.80;99.90
19781;DHT22;10050;55.492;13.506;2023-02-28T07:29:51;1.90;99.90
